sensor_id;sensor_type;location;lat;lon;timestamp;P1;durP1;ratioP1;P2;durP2;ratioP2
66542;SDS011;53395;37.360;-122.046;2022-10-17T00:02:08;31.25;;;29.20;;
66542;SDS011;53395;37.360;-122.046;2022-10-17T00:04:34;24.25;;;22.23;;
66542;SDS011;53395;37.360;-122.046;2022-10-17T00:06:59;26.60;;;24.75;;
66542;SDS011;53395;37.360;-122.046;2022-10-17T00:09:25;25.13;;;23.15;;
66542;SDS011;53395;37.360;-122.046;2022-10-17T00:11:53;30.75;;;28.27;;
66542;SDS011;53395;37.360;-122.046;2022-10-17T00:14:19;26.65;;;24.85;;
66542;SDS011;53395;37.360;-122.046;2022-10-17T00:16:45;26.73;;;24.92;;
66542;SDS011;53395;37.360;-122.046;2022-10-17T00:19:11;26.83;;;24.67;;
66542;SDS011;53395;37.360;-122.046;2022-10-17T00:21:37;27.55;;;25.55;;
66542;SDS011;53395;37.360;-122.046;2022-10-17T00:24:03;35.47;;;32.45;;
66542;SDS011;53395;37.360;-122.046;2022-10-17T00:26:28;29.85;;;27.90;;
66542;SDS011;53395;37.360;-122.046;2022-10-17T00:28:54;31.35;;;29.02;;
66542;SDS011;53395;37.360;-122.046;2022-10-17T00:31:21;30.35;;;28.08;;
66542;SDS011;53395;37.360;-122.046;2022-10-17T00:33:47;31.10;;;28.80;;
66542;SDS011;53395;37.360;-122.046;2022-10-17T00:36:13;29.63;;;27.33;;
66542;SDS011;53395;37.360;-122.046;2022-10-17T00:38:40;29.10;;;27.10;;
66542;SDS011;53395;37.360;-122.046;2022-10-17T00:41:07;27.17;;;25.10;;
66542;SDS011;53395;37.360;-122.046;2022-10-17T00:46:17;27.92;;;25.88;;
66542;SDS011;53395;37.360;-122.046;2022-10-17T00:48:43;79.93;;;75.43;;
66542;SDS011;53395;37.360;-122.046;2022-10-17T00:51:09;31.83;;;29.48;;
66542;SDS011;53395;37.360;-122.046;2022-10-17T00:53:36;30.75;;;28.70;;
66542;SDS011;53395;37.360;-122.046;2022-10-17T00:56:03;29.38;;;27.48;;
66542;SDS011;53395;37.360;-122.046;2022-10-17T00:58:29;31.52;;;29.67;;
66542;SDS011;53395;37.360;-122.046;2022-10-17T01:00:55;36.47;;;33.97;;
66542;SDS011;53395;37.360;-122.046;2022-10-17T01:03:21;46.88;;;43.97;;
66542;SDS011;53395;37.360;-122.046;2022-10-17T01:05:47;28.52;;;26.42;;
66542;SDS011;53395;37.360;-122.046;2022-10-17T01:08:13;26.30;;;24.42;;
66542;SDS011;53395;37.360;-122.046;2022-10-17T01:13:25;22.88;;;21.02;;
66542;SDS011;53395;37.360;-122.046;2022-10-17T01:23:48;29.08;;;27.02;;
66542;SDS011;53395;37.360;-122.046;2022-10-17T01:26:22;35.00;;;32.45;;
66542;SDS011;53395;37.360;-122.046;2022-10-17T01:31:16;29.85;;;27.48;;
66542;SDS011;53395;37.360;-122.046;2022-10-17T01:33:45;28.30;;;26.23;;
66542;SDS011;53395;37.360;-122.046;2022-10-17T01:36:22;29.58;;;27.33;;
66542;SDS011;53395;37.360;-122.046;2022-10-17T01:38:52;31.63;;;29.65;;
66542;SDS011;53395;37.360;-122.046;2022-10-17T01:41:24;31.75;;;29.63;;
66542;SDS011;53395;37.360;-122.046;2022-10-17T01:43:53;31.20;;;28.90;;
66542;SDS011;53395;37.360;-122.046;2022-10-17T01:48:49;30.13;;;27.77;;
66542;SDS011;53395;37.360;-122.046;2022-10-17T01:51:20;31.83;;;29.63;;
66542;SDS011;53395;37.360;-122.046;2022-10-17T01:54:30;28.40;;;26.48;;
66542;SDS011;53395;37.360;-122.046;2022-10-17T01:56:35;30.13;;;28.13;;
66542;SDS011;53395;37.360;-122.046;2022-10-17T01:59:08;35.55;;;33.20;;
66542;SDS011;53395;37.360;-122.046;2022-10-17T02:01:35;30.08;;;27.98;;
66542;SDS011;53395;37.360;-122.046;2022-10-17T02:04:02;29.85;;;27.73;;
66542;SDS011;53395;37.360;-122.046;2022-10-17T02:06:33;30.50;;;28.38;;
66542;SDS011;53395;37.360;-122.046;2022-10-17T02:08:59;30.17;;;28.25;;
66542;SDS011;53395;37.360;-122.046;2022-10-17T02:11:25;29.35;;;27.55;;
66542;SDS011;53395;37.360;-122.046;2022-10-17T02:19:24;31.70;;;29.42;;
66542;SDS011;53395;37.360;-122.046;2022-10-17T02:22:07;42.95;;;38.97;;
66542;SDS011;53395;37.360;-122.046;2022-10-17T02:29:46;38.15;;;34.45;;
66542;SDS011;53395;37.360;-122.046;2022-10-17T02:32:15;40.03;;;37.00;;
66542;SDS011;53395;37.360;-122.046;2022-10-17T02:34:48;37.28;;;34.40;;
66542;SDS011;53395;37.360;-122.046;2022-10-17T02:37:17;39.97;;;36.40;;
66542;SDS011;53395;37.360;-122.046;2022-10-17T02:39:44;39.92;;;36.72;;
66542;SDS011;53395;37.360;-122.046;2022-10-17T02:42:10;36.55;;;34.28;;
66542;SDS011;53395;37.360;-122.046;2022-10-17T02:44:38;33.65;;;31.42;;
66542;SDS011;53395;37.360;-122.046;2022-10-17T02:49:49;30.40;;;28.52;;
66542;SDS011;53395;37.360;-122.046;2022-10-17T02:54:50;31.75;;;29.75;;
66542;SDS011;53395;37.360;-122.046;2022-10-17T02:57:28;29.02;;;27.13;;
66542;SDS011;53395;37.360;-122.046;2022-10-17T02:59:55;32.63;;;30.55;;
66542;SDS011;53395;37.360;-122.046;2022-10-17T03:02:22;30.95;;;28.88;;
66542;SDS011;53395;37.360;-122.046;2022-10-17T03:04:48;30.63;;;28.52;;
66542;SDS011;53395;37.360;-122.046;2022-10-17T03:07:14;30.67;;;28.45;;
66542;SDS011;53395;37.360;-122.046;2022-10-17T03:09:40;30.35;;;28.45;;
66542;SDS011;53395;37.360;-122.046;2022-10-17T03:12:05;33.70;;;31.33;;
66542;SDS011;53395;37.360;-122.046;2022-10-17T03:14:31;29.73;;;27.85;;
66542;SDS011;53395;37.360;-122.046;2022-10-17T03:16:57;25.17;;;23.25;;
66542;SDS011;53395;37.360;-122.046;2022-10-17T03:19:23;32.00;;;29.80;;
66542;SDS011;53395;37.360;-122.046;2022-10-17T03:21:49;29.52;;;27.63;;
66542;SDS011;53395;37.360;-122.046;2022-10-17T03:24:14;30.00;;;28.05;;
66542;SDS011;53395;37.360;-122.046;2022-10-17T03:26:40;29.40;;;27.42;;
66542;SDS011;53395;37.360;-122.046;2022-10-17T03:29:06;31.52;;;29.35;;
66542;SDS011;53395;37.360;-122.046;2022-10-17T03:31:32;31.92;;;29.88;;
66542;SDS011;53395;37.360;-122.046;2022-10-17T03:33:58;31.85;;;29.45;;
66542;SDS011;53395;37.360;-122.046;2022-10-17T03:36:23;31.15;;;28.90;;
66542;SDS011;53395;37.360;-122.046;2022-10-17T03:38:52;29.77;;;27.60;;
66542;SDS011;53395;37.360;-122.046;2022-10-17T03:41:18;29.92;;;27.92;;
66542;SDS011;53395;37.360;-122.046;2022-10-17T03:43:44;28.83;;;26.67;;
66542;SDS011;53395;37.360;-122.046;2022-10-17T03:46:09;30.85;;;28.65;;
66542;SDS011;53395;37.360;-122.046;2022-10-17T03:48:35;27.17;;;25.38;;
66542;SDS011;53395;37.360;-122.046;2022-10-17T03:51:02;29.45;;;27.23;;
66542;SDS011;53395;37.360;-122.046;2022-10-17T03:53:28;29.73;;;27.73;;
66542;SDS011;53395;37.360;-122.046;2022-10-17T03:55:54;30.17;;;27.90;;
66542;SDS011;53395;37.360;-122.046;2022-10-17T03:58:20;29.65;;;27.63;;
66542;SDS011;53395;37.360;-122.046;2022-10-17T04:00:46;29.48;;;27.48;;
66542;SDS011;53395;37.360;-122.046;2022-10-17T04:03:12;29.35;;;27.25;;
66542;SDS011;53395;37.360;-122.046;2022-10-17T04:05:38;30.08;;;27.80;;
66542;SDS011;53395;37.360;-122.046;2022-10-17T04:08:04;26.85;;;25.17;;
66542;SDS011;53395;37.360;-122.046;2022-10-17T04:10:29;26.55;;;24.65;;
66542;SDS011;53395;37.360;-122.046;2022-10-17T04:12:55;28.25;;;26.08;;
66542;SDS011;53395;37.360;-122.046;2022-10-17T04:15:21;29.48;;;27.42;;
66542;SDS011;53395;37.360;-122.046;2022-10-17T04:17:47;26.95;;;25.08;;
66542;SDS011;53395;37.360;-122.046;2022-10-17T04:20:13;29.58;;;27.23;;
66542;SDS011;53395;37.360;-122.046;2022-10-17T04:22:38;27.65;;;25.63;;
66542;SDS011;53395;37.360;-122.046;2022-10-17T04:25:04;23.13;;;21.08;;
66542;SDS011;53395;37.360;-122.046;2022-10-17T04:27:30;28.88;;;26.75;;
66542;SDS011;53395;37.360;-122.046;2022-10-17T04:29:56;29.27;;;27.27;;
66542;SDS011;53395;37.360;-122.046;2022-10-17T04:32:22;25.08;;;23.48;;
66542;SDS011;53395;37.360;-122.046;2022-10-17T04:37:17;21.00;;;19.23;;
66542;SDS011;53395;37.360;-122.046;2022-10-17T04:39:42;23.60;;;22.02;;
66542;SDS011;53395;37.360;-122.046;2022-10-17T04:42:08;19.90;;;18.48;;
66542;SDS011;53395;37.360;-122.046;2022-10-17T04:44:34;25.35;;;23.60;;
66542;SDS011;53395;37.360;-122.046;2022-10-17T04:47:01;24.95;;;23.05;;
66542;SDS011;53395;37.360;-122.046;2022-10-17T04:49:27;25.98;;;23.98;;
66542;SDS011;53395;37.360;-122.046;2022-10-17T04:51:52;23.73;;;21.92;;
66542;SDS011;53395;37.360;-122.046;2022-10-17T04:54:18;24.40;;;22.60;;
66542;SDS011;53395;37.360;-122.046;2022-10-17T04:56:44;23.95;;;22.20;;
66542;SDS011;53395;37.360;-122.046;2022-10-17T04:59:11;25.90;;;24.10;;
66542;SDS011;53395;37.360;-122.046;2022-10-17T05:01:37;24.65;;;23.00;;
66542;SDS011;53395;37.360;-122.046;2022-10-17T05:04:03;23.60;;;21.83;;
66542;SDS011;53395;37.360;-122.046;2022-10-17T05:06:28;24.48;;;22.75;;
66542;SDS011;53395;37.360;-122.046;2022-10-17T05:08:56;25.77;;;23.83;;
66542;SDS011;53395;37.360;-122.046;2022-10-17T05:11:23;23.48;;;21.77;;
66542;SDS011;53395;37.360;-122.046;2022-10-17T05:13:53;23.58;;;21.98;;
66542;SDS011;53395;37.360;-122.046;2022-10-17T05:16:20;22.58;;;20.98;;
66542;SDS011;53395;37.360;-122.046;2022-10-17T05:18:52;23.33;;;21.52;;
66542;SDS011;53395;37.360;-122.046;2022-10-17T05:21:19;22.50;;;21.05;;
66542;SDS011;53395;37.360;-122.046;2022-10-17T05:23:45;20.88;;;19.30;;
66542;SDS011;53395;37.360;-122.046;2022-10-17T05:26:11;24.13;;;22.48;;
66542;SDS011;53395;37.360;-122.046;2022-10-17T05:28:37;21.85;;;20.15;;
66542;SDS011;53395;37.360;-122.046;2022-10-17T05:31:03;22.05;;;20.30;;
66542;SDS011;53395;37.360;-122.046;2022-10-17T05:33:29;23.25;;;21.63;;
66542;SDS011;53395;37.360;-122.046;2022-10-17T05:35:55;21.17;;;19.75;;
66542;SDS011;53395;37.360;-122.046;2022-10-17T05:38:20;21.13;;;19.65;;
66542;SDS011;53395;37.360;-122.046;2022-10-17T05:40:46;19.17;;;17.83;;
66542;SDS011;53395;37.360;-122.046;2022-10-17T05:43:12;19.95;;;18.52;;
66542;SDS011;53395;37.360;-122.046;2022-10-17T05:45:39;21.50;;;19.52;;
66542;SDS011;53395;37.360;-122.046;2022-10-17T05:48:05;25.25;;;23.27;;
66542;SDS011;53395;37.360;-122.046;2022-10-17T05:50:30;21.58;;;20.23;;
66542;SDS011;53395;37.360;-122.046;2022-10-17T05:52:56;19.75;;;18.35;;
66542;SDS011;53395;37.360;-122.046;2022-10-17T05:55:22;20.08;;;18.55;;
66542;SDS011;53395;37.360;-122.046;2022-10-17T05:57:48;19.67;;;18.25;;
66542;SDS011;53395;37.360;-122.046;2022-10-17T06:00:17;20.02;;;18.63;;
66542;SDS011;53395;37.360;-122.046;2022-10-17T06:02:43;19.80;;;18.38;;
66542;SDS011;53395;37.360;-122.046;2022-10-17T06:05:10;20.55;;;19.15;;
66542;SDS011;53395;37.360;-122.046;2022-10-17T06:07:36;19.85;;;18.45;;
66542;SDS011;53395;37.360;-122.046;2022-10-17T06:10:02;21.27;;;19.67;;
66542;SDS011;53395;37.360;-122.046;2022-10-17T06:12:28;14.60;;;13.50;;
66542;SDS011;53395;37.360;-122.046;2022-10-17T06:14:54;20.80;;;19.55;;
66542;SDS011;53395;37.360;-122.046;2022-10-17T06:17:19;19.30;;;17.63;;
66542;SDS011;53395;37.360;-122.046;2022-10-17T06:19:45;20.05;;;18.70;;
66542;SDS011;53395;37.360;-122.046;2022-10-17T06:22:11;19.70;;;17.98;;
66542;SDS011;53395;37.360;-122.046;2022-10-17T06:24:37;18.90;;;17.50;;
66542;SDS011;53395;37.360;-122.046;2022-10-17T06:27:03;19.73;;;18.15;;
66542;SDS011;53395;37.360;-122.046;2022-10-17T06:29:29;18.90;;;17.17;;
66542;SDS011;53395;37.360;-122.046;2022-10-17T06:31:55;17.55;;;16.15;;
66542;SDS011;53395;37.360;-122.046;2022-10-17T06:34:21;18.48;;;17.05;;
66542;SDS011;53395;37.360;-122.046;2022-10-17T06:36:47;16.92;;;15.68;;
66542;SDS011;53395;37.360;-122.046;2022-10-17T06:39:13;14.32;;;13.18;;
66542;SDS011;53395;37.360;-122.046;2022-10-17T06:41:39;15.02;;;14.02;;
66542;SDS011;53395;37.360;-122.046;2022-10-17T06:44:08;14.65;;;13.65;;
66542;SDS011;53395;37.360;-122.046;2022-10-17T06:46:37;11.68;;;10.85;;
66542;SDS011;53395;37.360;-122.046;2022-10-17T06:49:03;13.05;;;12.05;;
66542;SDS011;53395;37.360;-122.046;2022-10-17T06:51:30;14.43;;;13.15;;
66542;SDS011;53395;37.360;-122.046;2022-10-17T06:56:21;9.13;;;8.30;;
66542;SDS011;53395;37.360;-122.046;2022-10-17T06:58:47;12.02;;;11.02;;
66542;SDS011;53395;37.360;-122.046;2022-10-17T07:01:15;10.95;;;9.98;;
66542;SDS011;53395;37.360;-122.046;2022-10-17T07:03:40;9.30;;;8.50;;
66542;SDS011;53395;37.360;-122.046;2022-10-17T07:06:08;12.10;;;11.20;;
66542;SDS011;53395;37.360;-122.046;2022-10-17T07:08:35;11.07;;;10.18;;
66542;SDS011;53395;37.360;-122.046;2022-10-17T07:11:08;12.45;;;11.15;;
66542;SDS011;53395;37.360;-122.046;2022-10-17T07:13:34;12.68;;;10.45;;
66542;SDS011;53395;37.360;-122.046;2022-10-17T07:16:00;10.90;;;10.10;;
66542;SDS011;53395;37.360;-122.046;2022-10-17T07:18:26;10.63;;;9.75;;
66542;SDS011;53395;37.360;-122.046;2022-10-17T07:20:53;10.13;;;8.75;;
66542;SDS011;53395;37.360;-122.046;2022-10-17T07:23:19;10.23;;;9.45;;
66542;SDS011;53395;37.360;-122.046;2022-10-17T07:25:45;12.02;;;10.93;;
66542;SDS011;53395;37.360;-122.046;2022-10-17T07:28:10;11.15;;;10.13;;
66542;SDS011;53395;37.360;-122.046;2022-10-17T07:30:36;10.73;;;6.70;;
66542;SDS011;53395;37.360;-122.046;2022-10-17T07:33:02;10.95;;;10.05;;
66542;SDS011;53395;37.360;-122.046;2022-10-17T07:35:28;9.90;;;9.18;;
66542;SDS011;53395;37.360;-122.046;2022-10-17T07:37:54;10.25;;;9.35;;
66542;SDS011;53395;37.360;-122.046;2022-10-17T07:40:20;9.80;;;9.07;;
66542;SDS011;53395;37.360;-122.046;2022-10-17T07:42:45;11.15;;;10.43;;
66542;SDS011;53395;37.360;-122.046;2022-10-17T07:45:11;10.20;;;9.20;;
66542;SDS011;53395;37.360;-122.046;2022-10-17T07:47:37;10.63;;;9.70;;
66542;SDS011;53395;37.360;-122.046;2022-10-17T07:50:04;7.72;;;6.90;;
66542;SDS011;53395;37.360;-122.046;2022-10-17T07:52:30;7.65;;;6.95;;
66542;SDS011;53395;37.360;-122.046;2022-10-17T07:54:56;10.43;;;9.15;;
66542;SDS011;53395;37.360;-122.046;2022-10-17T07:57:21;10.82;;;7.95;;
66542;SDS011;53395;37.360;-122.046;2022-10-17T07:59:47;9.68;;;8.68;;
66542;SDS011;53395;37.360;-122.046;2022-10-17T08:02:22;10.57;;;9.63;;
66542;SDS011;53395;37.360;-122.046;2022-10-17T08:04:49;10.65;;;9.85;;
66542;SDS011;53395;37.360;-122.046;2022-10-17T08:07:15;11.38;;;10.23;;
66542;SDS011;53395;37.360;-122.046;2022-10-17T08:09:41;10.68;;;9.75;;
66542;SDS011;53395;37.360;-122.046;2022-10-17T08:12:07;9.65;;;8.80;;
66542;SDS011;53395;37.360;-122.046;2022-10-17T08:14:33;9.07;;;8.23;;
66542;SDS011;53395;37.360;-122.046;2022-10-17T08:16:59;10.25;;;9.45;;
66542;SDS011;53395;37.360;-122.046;2022-10-17T08:19:24;8.88;;;8.02;;
66542;SDS011;53395;37.360;-122.046;2022-10-17T08:21:50;8.32;;;7.13;;
66542;SDS011;53395;37.360;-122.046;2022-10-17T08:24:16;10.63;;;9.60;;
66542;SDS011;53395;37.360;-122.046;2022-10-17T08:26:42;10.45;;;9.45;;
66542;SDS011;53395;37.360;-122.046;2022-10-17T08:29:14;9.48;;;8.68;;
66542;SDS011;53395;37.360;-122.046;2022-10-17T08:31:41;10.40;;;9.43;;
66542;SDS011;53395;37.360;-122.046;2022-10-17T08:34:07;8.23;;;7.53;;
66542;SDS011;53395;37.360;-122.046;2022-10-17T08:36:32;9.57;;;8.82;;
66542;SDS011;53395;37.360;-122.046;2022-10-17T08:38:58;10.07;;;9.30;;
66542;SDS011;53395;37.360;-122.046;2022-10-17T08:46:35;10.65;;;8.27;;
66542;SDS011;53395;37.360;-122.046;2022-10-17T08:49:03;9.77;;;9.07;;
66542;SDS011;53395;37.360;-122.046;2022-10-17T08:51:31;10.52;;;9.55;;
66542;SDS011;53395;37.360;-122.046;2022-10-17T08:56:43;7.25;;;6.55;;
66542;SDS011;53395;37.360;-122.046;2022-10-17T08:59:10;8.10;;;7.40;;
66542;SDS011;53395;37.360;-122.046;2022-10-17T09:01:43;9.95;;;9.18;;
66542;SDS011;53395;37.360;-122.046;2022-10-17T09:06:39;9.65;;;7.25;;
66542;SDS011;53395;37.360;-122.046;2022-10-17T09:14:52;8.88;;;8.07;;
66542;SDS011;53395;37.360;-122.046;2022-10-17T09:19:25;9.90;;;9.07;;
66542;SDS011;53395;37.360;-122.046;2022-10-17T09:22:12;8.98;;;8.20;;
66542;SDS011;53395;37.360;-122.046;2022-10-17T09:27:10;9.20;;;8.52;;
66542;SDS011;53395;37.360;-122.046;2022-10-17T09:29:39;9.50;;;8.60;;
66542;SDS011;53395;37.360;-122.046;2022-10-17T09:32:20;9.98;;;8.98;;
66542;SDS011;53395;37.360;-122.046;2022-10-17T09:34:47;7.90;;;7.18;;
66542;SDS011;53395;37.360;-122.046;2022-10-17T09:37:13;8.85;;;7.97;;
66542;SDS011;53395;37.360;-122.046;2022-10-17T09:39:39;9.23;;;8.40;;
66542;SDS011;53395;37.360;-122.046;2022-10-17T09:42:08;9.82;;;8.07;;
66542;SDS011;53395;37.360;-122.046;2022-10-17T09:44:39;9.07;;;8.27;;
66542;SDS011;53395;37.360;-122.046;2022-10-17T09:47:21;9.52;;;8.70;;
66542;SDS011;53395;37.360;-122.046;2022-10-17T09:49:48;9.50;;;7.85;;
66542;SDS011;53395;37.360;-122.046;2022-10-17T09:52:19;9.48;;;8.68;;
66542;SDS011;53395;37.360;-122.046;2022-10-17T09:54:47;6.25;;;5.75;;
66542;SDS011;53395;37.360;-122.046;2022-10-17T09:57:14;10.05;;;7.68;;
66542;SDS011;53395;37.360;-122.046;2022-10-17T10:02:15;7.70;;;6.90;;
66542;SDS011;53395;37.360;-122.046;2022-10-17T10:05:23;7.97;;;7.32;;
66542;SDS011;53395;37.360;-122.046;2022-10-17T10:07:34;8.13;;;7.38;;
66542;SDS011;53395;37.360;-122.046;2022-10-17T10:10:00;7.80;;;7.00;;
66542;SDS011;53395;37.360;-122.046;2022-10-17T10:12:29;8.93;;;8.23;;
66542;SDS011;53395;37.360;-122.046;2022-10-17T10:14:55;7.97;;;7.43;;
66542;SDS011;53395;37.360;-122.046;2022-10-17T10:17:35;10.27;;;9.15;;
66542;SDS011;53395;37.360;-122.046;2022-10-17T10:20:03;6.75;;;5.65;;
66542;SDS011;53395;37.360;-122.046;2022-10-17T10:25:14;8.00;;;7.28;;
66542;SDS011;53395;37.360;-122.046;2022-10-17T10:27:40;8.20;;;7.60;;
66542;SDS011;53395;37.360;-122.046;2022-10-17T10:30:15;9.55;;;7.22;;
66542;SDS011;53395;37.360;-122.046;2022-10-17T10:32:41;9.40;;;6.55;;
66542;SDS011;53395;37.360;-122.046;2022-10-17T10:38:12;7.70;;;7.10;;
66542;SDS011;53395;37.360;-122.046;2022-10-17T10:43:06;6.97;;;6.45;;
66542;SDS011;53395;37.360;-122.046;2022-10-17T10:47:59;9.90;;;6.85;;
66542;SDS011;53395;37.360;-122.046;2022-10-17T10:50:28;7.63;;;6.97;;
66542;SDS011;53395;37.360;-122.046;2022-10-17T10:55:41;7.03;;;6.45;;
66542;SDS011;53395;37.360;-122.046;2022-10-17T11:03:35;6.82;;;6.32;;
66542;SDS011;53395;37.360;-122.046;2022-10-17T11:06:44;7.32;;;6.63;;
66542;SDS011;53395;37.360;-122.046;2022-10-17T11:08:56;8.95;;;5.50;;
66542;SDS011;53395;37.360;-122.046;2022-10-17T11:11:30;7.72;;;7.05;;
66542;SDS011;53395;37.360;-122.046;2022-10-17T11:16:31;9.15;;;6.72;;
66542;SDS011;53395;37.360;-122.046;2022-10-17T11:19:02;7.80;;;5.85;;
66542;SDS011;53395;37.360;-122.046;2022-10-17T11:26:46;8.20;;;6.85;;
66542;SDS011;53395;37.360;-122.046;2022-10-17T11:29:13;7.50;;;6.75;;
66542;SDS011;53395;37.360;-122.046;2022-10-17T11:31:44;9.20;;;7.00;;
66542;SDS011;53395;37.360;-122.046;2022-10-17T11:34:16;8.95;;;8.25;;
66542;SDS011;53395;37.360;-122.046;2022-10-17T11:36:44;10.25;;;5.53;;
66542;SDS011;53395;37.360;-122.046;2022-10-17T11:39:17;7.72;;;7.20;;
66542;SDS011;53395;37.360;-122.046;2022-10-17T11:41:45;7.47;;;6.60;;
66542;SDS011;53395;37.360;-122.046;2022-10-17T11:44:24;7.28;;;6.68;;
66542;SDS011;53395;37.360;-122.046;2022-10-17T11:46:54;7.82;;;7.18;;
66542;SDS011;53395;37.360;-122.046;2022-10-17T11:49:23;8.73;;;6.43;;
66542;SDS011;53395;37.360;-122.046;2022-10-17T11:51:56;7.60;;;7.00;;
66542;SDS011;53395;37.360;-122.046;2022-10-17T11:54:32;8.80;;;6.07;;
66542;SDS011;53395;37.360;-122.046;2022-10-17T11:59:46;7.47;;;6.68;;
66542;SDS011;53395;37.360;-122.046;2022-10-17T12:02:26;7.07;;;6.13;;
66542;SDS011;53395;37.360;-122.046;2022-10-17T12:04:58;7.18;;;6.55;;
66542;SDS011;53395;37.360;-122.046;2022-10-17T12:07:29;6.90;;;6.25;;
66542;SDS011;53395;37.360;-122.046;2022-10-17T12:15:46;6.15;;;5.55;;
66542;SDS011;53395;37.360;-122.046;2022-10-17T12:18:15;9.35;;;7.35;;
66542;SDS011;53395;37.360;-122.046;2022-10-17T12:20:41;7.13;;;6.47;;
66542;SDS011;53395;37.360;-122.046;2022-10-17T12:25:46;7.32;;;6.65;;
66542;SDS011;53395;37.360;-122.046;2022-10-17T12:28:16;7.05;;;6.43;;
66542;SDS011;53395;37.360;-122.046;2022-10-17T12:31:00;7.05;;;6.45;;
66542;SDS011;53395;37.360;-122.046;2022-10-17T12:33:33;6.85;;;5.43;;
66542;SDS011;53395;37.360;-122.046;2022-10-17T12:38:46;7.15;;;6.60;;
66542;SDS011;53395;37.360;-122.046;2022-10-17T12:41:12;6.60;;;6.10;;
66542;SDS011;53395;37.360;-122.046;2022-10-17T12:46:10;6.20;;;5.63;;
66542;SDS011;53395;37.360;-122.046;2022-10-17T12:51:04;7.82;;;6.40;;
66542;SDS011;53395;37.360;-122.046;2022-10-17T12:56:12;9.48;;;6.65;;
66542;SDS011;53395;37.360;-122.046;2022-10-17T12:58:41;7.05;;;6.40;;
66542;SDS011;53395;37.360;-122.046;2022-10-17T13:01:08;9.55;;;5.80;;
66542;SDS011;53395;37.360;-122.046;2022-10-17T13:03:41;6.45;;;5.95;;
66542;SDS011;53395;37.360;-122.046;2022-10-17T13:06:11;9.43;;;6.63;;
66542;SDS011;53395;37.360;-122.046;2022-10-17T13:08:38;6.80;;;6.18;;
66542;SDS011;53395;37.360;-122.046;2022-10-17T13:11:07;8.60;;;6.50;;
66542;SDS011;53395;37.360;-122.046;2022-10-17T13:13:37;6.75;;;6.15;;
66542;SDS011;53395;37.360;-122.046;2022-10-17T13:16:06;7.70;;;7.13;;
66542;SDS011;53395;37.360;-122.046;2022-10-17T13:18:32;6.82;;;6.15;;
66542;SDS011;53395;37.360;-122.046;2022-10-17T13:23:24;8.00;;;6.05;;
66542;SDS011;53395;37.360;-122.046;2022-10-17T13:28:35;6.57;;;5.97;;
66542;SDS011;53395;37.360;-122.046;2022-10-17T13:31:01;6.75;;;6.07;;
66542;SDS011;53395;37.360;-122.046;2022-10-17T13:33:28;5.63;;;4.78;;
66542;SDS011;53395;37.360;-122.046;2022-10-17T13:35:55;7.00;;;6.47;;
66542;SDS011;53395;37.360;-122.046;2022-10-17T13:38:25;7.07;;;4.97;;
66542;SDS011;53395;37.360;-122.046;2022-10-17T13:40:52;7.97;;;6.47;;
66542;SDS011;53395;37.360;-122.046;2022-10-17T13:43:19;6.40;;;5.80;;
66542;SDS011;53395;37.360;-122.046;2022-10-17T13:45:48;7.38;;;6.70;;
66542;SDS011;53395;37.360;-122.046;2022-10-17T13:48:19;6.85;;;6.25;;
66542;SDS011;53395;37.360;-122.046;2022-10-17T13:50:46;5.68;;;5.10;;
66542;SDS011;53395;37.360;-122.046;2022-10-17T13:53:23;6.82;;;5.53;;
66542;SDS011;53395;37.360;-122.046;2022-10-17T13:56:34;7.72;;;6.38;;
66542;SDS011;53395;37.360;-122.046;2022-10-17T13:58:42;6.50;;;5.18;;
66542;SDS011;53395;37.360;-122.046;2022-10-17T14:01:08;6.40;;;5.88;;
66542;SDS011;53395;37.360;-122.046;2022-10-17T14:03:36;6.88;;;6.30;;
66542;SDS011;53395;37.360;-122.046;2022-10-17T14:06:06;7.00;;;6.40;;
66542;SDS011;53395;37.360;-122.046;2022-10-17T14:08:36;6.78;;;6.18;;
66542;SDS011;53395;37.360;-122.046;2022-10-17T14:11:06;6.85;;;6.00;;
66542;SDS011;53395;37.360;-122.046;2022-10-17T14:13:37;9.80;;;5.93;;
66542;SDS011;53395;37.360;-122.046;2022-10-17T14:16:03;8.35;;;6.88;;
66542;SDS011;53395;37.360;-122.046;2022-10-17T14:18:30;6.70;;;6.10;;
66542;SDS011;53395;37.360;-122.046;2022-10-17T14:20:56;6.97;;;6.00;;
66542;SDS011;53395;37.360;-122.046;2022-10-17T14:23:33;6.85;;;4.70;;
66542;SDS011;53395;37.360;-122.046;2022-10-17T14:26:19;7.15;;;6.43;;
66542;SDS011;53395;37.360;-122.046;2022-10-17T14:28:50;5.32;;;4.05;;
66542;SDS011;53395;37.360;-122.046;2022-10-17T14:31:34;7.93;;;6.32;;
66542;SDS011;53395;37.360;-122.046;2022-10-17T14:34:00;7.95;;;6.13;;
66542;SDS011;53395;37.360;-122.046;2022-10-17T14:36:32;14.50;;;6.60;;
66542;SDS011;53395;37.360;-122.046;2022-10-17T14:38:58;8.32;;;6.70;;
66542;SDS011;53395;37.360;-122.046;2022-10-17T14:41:25;7.53;;;6.35;;
66542;SDS011;53395;37.360;-122.046;2022-10-17T14:43:56;8.18;;;5.97;;
66542;SDS011;53395;37.360;-122.046;2022-10-17T14:46:23;12.68;;;6.80;;
66542;SDS011;53395;37.360;-122.046;2022-10-17T14:49:36;7.35;;;5.93;;
66542;SDS011;53395;37.360;-122.046;2022-10-17T14:51:35;9.70;;;7.03;;
66542;SDS011;53395;37.360;-122.046;2022-10-17T14:54:03;9.43;;;7.00;;
66542;SDS011;53395;37.360;-122.046;2022-10-17T14:56:34;12.27;;;6.55;;
66542;SDS011;53395;37.360;-122.046;2022-10-17T14:58:59;14.93;;;6.93;;
66542;SDS011;53395;37.360;-122.046;2022-10-17T15:01:27;17.40;;;6.10;;
66542;SDS011;53395;37.360;-122.046;2022-10-17T15:03:53;11.13;;;6.90;;
66542;SDS011;53395;37.360;-122.046;2022-10-17T15:06:20;11.32;;;7.13;;
66542;SDS011;53395;37.360;-122.046;2022-10-17T15:08:46;10.05;;;6.43;;
66542;SDS011;53395;37.360;-122.046;2022-10-17T15:11:12;8.30;;;6.05;;
66542;SDS011;53395;37.360;-122.046;2022-10-17T15:13:37;12.82;;;7.22;;
66542;SDS011;53395;37.360;-122.046;2022-10-17T15:16:20;7.55;;;6.85;;
66542;SDS011;53395;37.360;-122.046;2022-10-17T15:18:46;10.55;;;7.95;;
66542;SDS011;53395;37.360;-122.046;2022-10-17T15:21:12;9.57;;;8.10;;
66542;SDS011;53395;37.360;-122.046;2022-10-17T15:23:39;10.07;;;8.18;;
66542;SDS011;53395;37.360;-122.046;2022-10-17T15:26:19;10.20;;;8.57;;
66542;SDS011;53395;37.360;-122.046;2022-10-17T15:28:45;10.77;;;8.38;;
66542;SDS011;53395;37.360;-122.046;2022-10-17T15:31:12;10.13;;;8.63;;
66542;SDS011;53395;37.360;-122.046;2022-10-17T15:33:38;12.30;;;8.30;;
66542;SDS011;53395;37.360;-122.046;2022-10-17T15:38:42;10.82;;;9.63;;
66542;SDS011;53395;37.360;-122.046;2022-10-17T15:41:09;13.57;;;9.02;;
66542;SDS011;53395;37.360;-122.046;2022-10-17T15:43:35;10.43;;;8.15;;
66542;SDS011;53395;37.360;-122.046;2022-10-17T15:46:01;12.57;;;8.85;;
66542;SDS011;53395;37.360;-122.046;2022-10-17T15:48:27;12.82;;;9.90;;
66542;SDS011;53395;37.360;-122.046;2022-10-17T15:50:54;9.13;;;8.23;;
66542;SDS011;53395;37.360;-122.046;2022-10-17T15:53:20;9.98;;;6.80;;
66542;SDS011;53395;37.360;-122.046;2022-10-17T15:55:46;10.18;;;8.85;;
66542;SDS011;53395;37.360;-122.046;2022-10-17T15:58:15;12.93;;;8.18;;
66542;SDS011;53395;37.360;-122.046;2022-10-17T16:00:41;12.57;;;8.00;;